Aérodrome :
LOGIN :

S'inscrire | Disclaimer

   EN    FR    IT 

 










Légende :    VFR   VFR Marginal   IFR   IFR Intensif   IFR Très Intensif
Visi : 
Plafond : 
>= 8 km
>= 3000ft
5 à 8 km
1000 à 3000 ft
1500m à 5 km
500 à 1000 ft
800 à 1500m
200 à 500 ft
< 800m
< 200 ft
Symboles :   Orages  Brouillard  Fortes neiges  Fortes précipitations  Vent > 20 kt
SIGMETs :   Divers  Orages  Givrage  Turbulence  Onde Orograph.  Cendres Volcan.






- Altitude de l'aérodrome : 782 ft
- Code IATA : BGY


LIME - Orio al Serio International - Bergamo

DERNIER METAR :
  • 181150Z 13014KT 9999 FEW055 27/14 Q1022 NOSIG

METARs EXPIRÉS :
  • 181120Z 14013KT 9999 FEW055 27/14 Q1022 NOSIG
  • 181050Z 13014KT 100V160 9999 FEW055 27/14 Q1022 NOSIG
  • 181020Z 13013KT 100V160 9999 FEW055 27/13 Q1022 NOSIG
  • 180950Z 14010KT 090V170 9999 FEW055 26/15 Q1022 NOSIG
  • 180920Z 14010KT 120V180 CAVOK 25/15 Q1022 NOSIG

TAF TAF LIME
Valide du 18 à 12h jusqu'au 19 à 12h UTC


181100Z 1812/1912 12012KT CAVOK
BECMG 1817/1819 VRB05KT
BECMG 1907/1909 12010KT



MET'MAP, la Météo Aéronautique d'un coup d'oeil ! - Copyright ORBIFLY Décembre 2007 - Disclaimer

ORBIFLY MET'MAP TEAM :

Programmation & Développement : Alexandra Zaïnal
Sur une idée originale de : Baudouin d'Aumeries
Soutien technique & logistique : Manuel Goepfert
Assistance : Marc-Olivier Méhu

Contact : metmap@orbifly.com




SOURCES & CREDITS :

   NOAA